Time;durP1;ratioP1;P1;durP2;ratioP2;P2;SDS_P1;SDS_P2;PMS_P1;PMS_P2;Temp;Humidity;BMP_temperature;BMP_pressure;BME280_temperature;BME280_humidity;BME280_pressure;Samples;Min_cycle;Max_cycle;Signal;HPM_P1;HPM_P2
2022/12/28 00:00:28;;;;;;;;;;;20.80;66.70;;;;;;1624790;72;1142;-79
2022/12/28 00:02:30;;;;;;;;;;;20.90;66.70;;;;;;1622653;72;711;-78
2022/12/28 00:04:32;;;;;;;;;;;20.80;66.50;;;;;;1617303;73;733;-79
2022/12/28 00:06:34;;;;;;;;;;;20.80;66.70;;;;;;1623721;73;710;-79
2022/12/28 00:08:36;;;;;;;;;;;20.80;66.60;;;;;;1627201;73;714;-79
2022/12/28 00:10:37;;;;;;;;;;;20.80;66.70;;;;;;1622759;72;1101;-79
2022/12/28 00:12:39;;;;;;;;;;;20.80;66.50;;;;;;1616801;73;774;-79
2022/12/28 00:14:41;;;;;;;;;;;20.80;66.70;;;;;;1619941;73;738;-79
2022/12/28 00:16:43;;;;;;;;;;;20.80;66.60;;;;;;1619402;73;737;-76
2022/12/28 00:18:45;;;;;;;;;;;20.80;66.80;;;;;;1621613;73;1915;-79
2022/12/28 00:20:57;;;;;;;;;;;20.80;66.80;;;;;;1617190;73;1230;-79
2022/12/28 00:22:59;;;;;;;;;;;20.80;66.50;;;;;;1617903;73;911;-79
2022/12/28 00:25:01;;;;;;;;;;;20.80;66.50;;;;;;1623496;73;586;-78
2022/12/28 00:27:03;;;;;;;;;;;20.80;66.50;;;;;;1616202;73;1541;-78
2022/12/28 00:29:05;;;;;;;;;;;20.90;66.70;;;;;;1621845;72;774;-79
2022/12/28 00:31:07;;;;;;;;;;;20.80;66.50;;;;;;1625271;72;1136;-79
2022/12/28 00:33:09;;;;;;;;;;;20.80;66.40;;;;;;1625876;72;783;-79
2022/12/28 00:35:10;;;;;;;;;;;20.80;66.40;;;;;;1621496;73;732;-79
2022/12/28 00:37:12;;;;;;;;;;;20.80;66.40;;;;;;1615804;73;724;-79
2022/12/28 00:39:14;;;;;;;;;;;20.80;66.40;;;;;;1620936;73;1932;-80
2022/12/28 00:41:16;;;;;;;;;;;20.80;66.40;;;;;;1619798;73;1167;-80
2022/12/28 00:43:18;;;;;;;;;;;20.80;66.40;;;;;;1612945;73;715;-80
2022/12/28 00:45:20;;;;;;;;;;;20.80;66.40;;;;;;1624073;73;671;-80
2022/12/28 00:47:22;;;;;;;;;;;20.80;66.40;;;;;;1627263;73;729;-79
2022/12/28 00:49:24;;;;;;;;;;;20.80;66.40;;;;;;1622668;73;710;-79
2022/12/28 00:51:25;;;;;;;;;;;20.80;66.30;;;;;;1621783;71;1116;-79
2022/12/28 00:53:27;;;;;;;;;;;20.70;66.30;;;;;;1618763;73;705;-76
2022/12/28 00:55:29;;;;;;;;;;;20.70;66.40;;;;;;1624281;73;719;-78
2022/12/28 00:57:32;;;;;;;;;;;20.70;66.60;;;;;;1616549;73;978;-78
2022/12/28 00:59:34;;;;;;;;;;;20.70;66.20;;;;;;1626592;72;1940;-78
2022/12/28 01:01:36;;;;;;;;;;;20.70;66.20;;;;;;1622505;72;1105;-78
2022/12/28 01:03:38;;;;;;;;;;;20.70;66.20;;;;;;1624612;73;726;-77
2022/12/28 01:05:40;;;;;;;;;;;20.70;66.30;;;;;;1619055;73;690;-78
2022/12/28 01:07:41;;;;;;;;;;;20.80;66.30;;;;;;1621542;73;728;-79
2022/12/28 01:09:43;;;;;;;;;;;20.70;66.30;;;;;;1621156;73;801;-77
2022/12/28 01:11:45;;;;;;;;;;;20.70;66.40;;;;;;1623543;72;1163;-78
2022/12/28 01:13:47;;;;;;;;;;;20.70;66.50;;;;;;1628739;72;685;-78
2022/12/28 01:15:49;;;;;;;;;;;20.70;66.60;;;;;;1621278;72;770;-77
2022/12/28 01:17:51;;;;;;;;;;;20.70;66.70;;;;;;1617659;72;743;-78
2022/12/28 01:19:53;;;;;;;;;;;20.70;66.70;;;;;;1618672;73;1929;-77
2022/12/28 01:21:56;;;;;;;;;;;20.70;66.70;;;;;;1620700;72;734;-79
2022/12/28 01:23:59;;;;;;;;;;;20.60;66.50;;;;;;1607879;73;1529;-78
2022/12/28 01:26:01;;;;;;;;;;;20.60;66.50;;;;;;1620193;73;744;-79
2022/12/28 01:28:03;;;;;;;;;;;20.70;66.60;;;;;;1619587;72;683;-79
2022/12/28 01:30:05;;;;;;;;;;;20.70;66.60;;;;;;1628795;71;1185;-79
2022/12/28 01:32:07;;;;;;;;;;;20.70;66.60;;;;;;1622100;73;727;-78
2022/12/28 01:34:09;;;;;;;;;;;20.70;66.70;;;;;;1620682;73;706;-79
2022/12/28 01:36:14;;;;;;;;;;;20.70;66.60;;;;;;1617298;73;632;-79
2022/12/28 01:38:16;;;;;;;;;;;20.80;66.70;;;;;;1614749;73;781;-79
2022/12/28 01:40:18;;;;;;;;;;;20.70;66.70;;;;;;1616832;73;1929;-78
2022/12/28 01:42:20;;;;;;;;;;;20.60;66.70;;;;;;1624388;73;741;-79
2022/12/28 01:44:26;;;;;;;;;;;20.70;66.70;;;;;;1629358;72;797;-78
2022/12/28 01:46:39;;;;;;;;;;;20.70;66.80;;;;;;1622673;73;746;-78
2022/12/28 01:48:42;;;;;;;;;;;20.70;66.80;;;;;;1622883;72;830;-75
2022/12/28 01:50:44;;;;;;;;;;;20.70;66.90;;;;;;1625397;72;1901;-78
2022/12/28 01:52:48;;;;;;;;;;;20.70;67.00;;;;;;1626106;72;744;-78
2022/12/28 01:54:51;;;;;;;;;;;20.70;67.00;;;;;;1620844;73;1075;-78
2022/12/28 01:56:52;;;;;;;;;;;20.70;67.10;;;;;;1621401;72;708;-76
2022/12/28 01:58:54;;;;;;;;;;;20.70;67.10;;;;;;1626142;72;1936;-77
2022/12/28 02:00:57;;;;;;;;;;;20.70;67.10;;;;;;1616678;72;1117;-78
2022/12/28 02:03:00;;;;;;;;;;;20.70;67.20;;;;;;1619667;73;795;-78
2022/12/28 02:05:02;;;;;;;;;;;20.70;67.30;;;;;;1625325;72;709;-77
2022/12/28 02:07:04;;;;;;;;;;;20.70;67.10;;;;;;1620352;73;762;-80
2022/12/28 02:09:06;;;;;;;;;;;20.70;67.20;;;;;;1619329;72;766;-79
2022/12/28 02:11:10;;;;;;;;;;;20.70;67.20;;;;;;1621438;73;1131;-79
2022/12/28 02:13:12;;;;;;;;;;;20.70;67.10;;;;;;1617913;72;788;-79
2022/12/28 02:15:14;;;;;;;;;;;20.70;67.10;;;;;;1621604;73;769;-79
2022/12/28 02:17:16;;;;;;;;;;;20.60;67.00;;;;;;1618553;73;716;-79
2022/12/28 02:19:18;;;;;;;;;;;20.70;67.10;;;;;;1617880;73;1933;-79
2022/12/28 02:21:22;;;;;;;;;;;20.70;67.10;;;;;;1619092;73;1190;-79
2022/12/28 02:23:37;;;;;;;;;;;20.70;67.00;;;;;;1617246;72;768;-78
2022/12/28 02:25:47;;;;;;;;;;;20.70;67.20;;;;;;1618871;73;702;-79
2022/12/28 02:27:50;;;;;;;;;;;20.70;67.10;;;;;;1628409;72;712;-79
2022/12/28 02:29:54;;;;;;;;;;;20.70;67.20;;;;;;1620296;72;1686;-79
2022/12/28 02:32:14;;;;;;;;;;;20.70;67.20;;;;;;1624378;73;701;-80
2022/12/28 02:34:23;;;;;;;;;;;20.70;67.20;;;;;;1624515;73;725;-78
2022/12/28 02:36:27;;;;;;;;;;;20.60;67.20;;;;;;1623021;73;775;-79
2022/12/28 02:38:37;;;;;;;;;;;20.60;67.10;;;;;;1630607;73;837;-78
2022/12/28 02:40:40;;;;;;;;;;;20.70;67.20;;;;;;1629044;72;1925;-79
2022/12/28 02:42:42;;;;;;;;;;;20.60;67.20;;;;;;1620204;72;971;-79
2022/12/28 02:51:52;;;;;;;;;;;20.60;66.90;;;;;;1616190;73;1217;-79
2022/12/28 02:54:01;;;;;;;;;;;20.60;67.10;;;;;;1611796;73;1943;-76
2022/12/28 02:56:07;;;;;;;;;;;20.70;67.20;;;;;;1612788;73;1821;-78
2022/12/28 02:58:13;;;;;;;;;;;20.60;67.20;;;;;;1619833;73;763;-79
2022/12/28 03:00:16;;;;;;;;;;;20.70;67.30;;;;;;1614524;72;1939;-77
2022/12/28 03:02:22;;;;;;;;;;;20.60;67.10;;;;;;1615018;73;710;-79
2022/12/28 03:04:34;;;;;;;;;;;20.60;67.30;;;;;;1612131;73;1040;-79
2022/12/28 03:09:11;;;;;;;;;;;20.60;67.20;;;;;;1622200;73;1591;-79
2022/12/28 03:11:14;;;;;;;;;;;20.60;67.00;;;;;;1622432;72;1200;-77
2022/12/28 03:15:37;;;;;;;;;;;20.60;67.20;;;;;;1541240;73;1610;-78
2022/12/28 03:31:41;;;;;;;;;;;20.60;67.60;;;;;;1619005;73;1680;-79
2022/12/28 03:33:44;;;;;;;;;;;20.60;67.60;;;;;;1619090;73;720;-77
2022/12/28 03:35:48;;;;;;;;;;;20.60;67.70;;;;;;1624160;73;1033;-80
2022/12/28 03:37:52;;;;;;;;;;;20.60;67.50;;;;;;1624444;73;623;-77
2022/12/28 03:40:01;;;;;;;;;;;20.60;67.60;;;;;;1628764;72;1947;-75
2022/12/28 03:44:26;;;;;;;;;;;20.60;67.60;;;;;;1620481;72;1678;-77
2022/12/28 03:46:29;;;;;;;;;;;20.70;67.80;;;;;;1611636;73;714;-79
2022/12/28 03:48:32;;;;;;;;;;;20.60;67.80;;;;;;1625041;73;684;-79
2022/12/28 03:50:37;;;;;;;;;;;20.60;67.70;;;;;;1621826;72;1156;-78
2022/12/28 03:52:39;;;;;;;;;;;20.60;67.80;;;;;;1624970;73;797;-77
2022/12/28 03:54:41;;;;;;;;;;;20.60;67.60;;;;;;1625610;72;734;-78
2022/12/28 03:56:47;;;;;;;;;;;20.60;67.30;;;;;;1624486;73;755;-79
2022/12/28 03:58:49;;;;;;;;;;;20.60;67.20;;;;;;1613243;73;712;-75
2022/12/28 04:00:51;;;;;;;;;;;20.60;67.20;;;;;;1621177;72;1937;-77
2022/12/28 04:02:53;;;;;;;;;;;20.60;67.40;;;;;;1627771;73;686;-75
2022/12/28 04:04:55;;;;;;;;;;;20.60;67.40;;;;;;1624570;73;598;-77
2022/12/28 04:06:57;;;;;;;;;;;20.70;67.60;;;;;;1619231;73;739;-78
2022/12/28 04:08:58;;;;;;;;;;;20.60;67.40;;;;;;1624317;72;789;-77
2022/12/28 04:11:00;;;;;;;;;;;20.60;67.30;;;;;;1614960;70;224772;-58
2022/12/28 04:13:02;;;;;;;;;;;20.60;67.30;;;;;;1652528;70;1461;-58
2022/12/28 04:15:04;;;;;;;;;;;20.60;67.30;;;;;;1662724;71;678;-58
2022/12/28 04:17:06;;;;;;;;;;;20.60;67.30;;;;;;1653884;71;713;-58
2022/12/28 04:19:09;;;;;;;;;;;20.60;67.30;;;;;;1658755;70;1143;-58
2022/12/28 04:21:11;;;;;;;;;;;20.60;67.30;;;;;;1655739;71;1950;-58
2022/12/28 04:23:13;;;;;;;;;;;20.50;67.20;;;;;;1658653;71;690;-58
2022/12/28 04:25:15;;;;;;;;;;;20.60;67.30;;;;;;1655449;70;727;-58
2022/12/28 04:27:16;;;;;;;;;;;20.60;67.30;;;;;;1654325;71;576;-58
2022/12/28 04:29:18;;;;;;;;;;;20.50;67.30;;;;;;1659717;70;1175;-59
2022/12/28 04:31:20;;;;;;;;;;;20.50;67.20;;;;;;1653158;71;714;-58
2022/12/28 04:33:22;;;;;;;;;;;20.60;67.20;;;;;;1649606;71;717;-59
2022/12/28 04:35:24;;;;;;;;;;;20.50;67.20;;;;;;1655312;71;732;-58
2022/12/28 04:37:26;;;;;;;;;;;20.60;67.30;;;;;;1652292;70;711;-58
2022/12/28 04:39:28;;;;;;;;;;;20.50;67.20;;;;;;1659083;70;1136;-59
2022/12/28 04:41:30;;;;;;;;;;;20.60;67.20;;;;;;1646161;71;1940;-59
2022/12/28 04:43:32;;;;;;;;;;;20.60;67.30;;;;;;1649783;71;703;-59
2022/12/28 04:45:34;;;;;;;;;;;20.60;67.30;;;;;;1646693;71;724;-58
2022/12/28 04:47:36;;;;;;;;;;;20.50;67.30;;;;;;1660125;71;596;-58
2022/12/28 04:49:38;;;;;;;;;;;20.50;67.30;;;;;;1654069;70;1123;-58
2022/12/28 04:51:40;;;;;;;;;;;20.50;67.40;;;;;;1657163;71;741;-60
2022/12/28 04:53:42;;;;;;;;;;;20.50;67.40;;;;;;1659619;70;598;-58
2022/12/28 04:55:44;;;;;;;;;;;20.50;67.40;;;;;;1638831;71;722;-57
2022/12/28 04:57:46;;;;;;;;;;;20.60;67.50;;;;;;1652013;71;731;-60
2022/12/28 04:59:47;;;;;;;;;;;20.50;67.50;;;;;;1658140;70;1136;-60
2022/12/28 05:01:49;;;;;;;;;;;20.50;67.40;;;;;;1654909;71;1930;-59
2022/12/28 05:03:51;;;;;;;;;;;20.60;67.40;;;;;;1656760;71;709;-58
2022/12/28 05:05:53;;;;;;;;;;;20.60;67.40;;;;;;1648560;71;790;-59
2022/12/28 05:07:55;;;;;;;;;;;20.50;67.50;;;;;;1657399;71;719;-59
2022/12/28 05:09:57;;;;;;;;;;;20.50;67.50;;;;;;1649718;70;1169;-59
2022/12/28 05:11:59;;;;;;;;;;;20.60;67.50;;;;;;1649347;71;757;-59
2022/12/28 05:14:01;;;;;;;;;;;20.60;67.50;;;;;;1657069;71;793;-59
2022/12/28 05:16:04;;;;;;;;;;;20.50;67.50;;;;;;1658262;71;699;-58
2022/12/28 05:18:06;;;;;;;;;;;20.50;67.60;;;;;;1657365;71;798;-59
2022/12/28 05:20:08;;;;;;;;;;;20.50;67.60;;;;;;1659152;70;1935;-59
2022/12/28 05:22:11;;;;;;;;;;;20.50;67.60;;;;;;1644860;71;698;-59
2022/12/28 05:24:13;;;;;;;;;;;20.50;67.60;;;;;;1649880;70;646;-58
2022/12/28 05:26:16;;;;;;;;;;;20.50;67.60;;;;;;1657456;71;718;-59
2022/12/28 05:28:18;;;;;;;;;;;20.60;67.80;;;;;;1655055;71;1192;-57
2022/12/28 05:30:20;;;;;;;;;;;20.50;67.70;;;;;;1657108;71;733;-59
2022/12/28 05:32:22;;;;;;;;;;;20.60;67.70;;;;;;1657687;71;682;-57
2022/12/28 05:34:24;;;;;;;;;;;20.50;67.60;;;;;;1646412;71;731;-57
2022/12/28 05:36:26;;;;;;;;;;;20.60;67.60;;;;;;1659099;71;644;-58
2022/12/28 05:38:28;;;;;;;;;;;20.50;67.60;;;;;;1659761;70;1159;-58
2022/12/28 05:40:30;;;;;;;;;;;20.60;67.60;;;;;;1657020;71;1926;-59
2022/12/28 05:42:31;;;;;;;;;;;20.50;67.60;;;;;;1655776;71;711;-59
2022/12/28 05:44:33;;;;;;;;;;;20.50;67.60;;;;;;1661255;70;760;-59
2022/12/28 05:46:35;;;;;;;;;;;20.50;67.60;;;;;;1653814;71;764;-58
2022/12/28 05:48:38;;;;;;;;;;;20.50;67.60;;;;;;1661866;70;1162;-58
2022/12/28 05:50:40;;;;;;;;;;;20.50;67.60;;;;;;1642989;71;733;-58
2022/12/28 05:52:42;;;;;;;;;;;20.50;67.60;;;;;;1659579;70;685;-58
2022/12/28 05:54:44;;;;;;;;;;;20.60;67.70;;;;;;1658988;71;590;-58
2022/12/28 05:56:46;;;;;;;;;;;20.50;67.70;;;;;;1642602;71;745;-58
2022/12/28 05:58:49;;;;;;;;;;;20.50;67.60;;;;;;1641989;71;1163;-58
2022/12/28 06:00:51;;;;;;;;;;;20.50;67.70;;;;;;1655155;70;1914;-58
2022/12/28 06:02:54;;;;;;;;;;;20.50;67.70;;;;;;1657563;71;727;-58
2022/12/28 06:04:56;;;;;;;;;;;20.50;67.70;;;;;;1656196;71;1444;-58
2022/12/28 06:06:58;;;;;;;;;;;20.50;67.80;;;;;;1655277;70;720;-58
2022/12/28 06:09:00;;;;;;;;;;;20.50;67.70;;;;;;1657850;70;1140;-58
2022/12/28 06:11:02;;;;;;;;;;;20.50;67.70;;;;;;1658140;71;786;-58
2022/12/28 06:13:04;;;;;;;;;;;20.50;67.80;;;;;;1653677;71;799;-58
2022/12/28 06:15:06;;;;;;;;;;;20.50;67.80;;;;;;1654632;71;722;-57
2022/12/28 06:17:08;;;;;;;;;;;20.50;68.00;;;;;;1656116;71;737;-58
2022/12/28 06:19:10;;;;;;;;;;;20.60;68.10;;;;;;1658674;71;1163;-57
2022/12/28 06:21:13;;;;;;;;;;;20.50;68.50;;;;;;1658780;70;1914;-58
2022/12/28 06:23:15;;;;;;;;;;;20.50;68.50;;;;;;1654541;71;785;-58
2022/12/28 06:25:17;;;;;;;;;;;20.60;68.30;;;;;;1651203;71;705;-58
2022/12/28 06:27:19;;;;;;;;;;;20.50;68.30;;;;;;1648503;71;709;-57
2022/12/28 06:29:21;;;;;;;;;;;20.50;69.20;;;;;;1648925;71;1246;-58
2022/12/28 06:31:23;;;;;;;;;;;20.60;70.30;;;;;;1650517;71;765;-58
2022/12/28 06:33:25;;;;;;;;;;;20.70;69.80;;;;;;1653972;70;735;-58
2022/12/28 06:35:27;;;;;;;;;;;20.70;70.00;;;;;;1656161;70;741;-58
2022/12/28 06:37:29;;;;;;;;;;;20.70;70.30;;;;;;1636358;71;716;-57
2022/12/28 06:39:31;;;;;;;;;;;20.70;70.20;;;;;;1654965;70;1131;-58
2022/12/28 06:41:33;;;;;;;;;;;20.70;70.10;;;;;;1654304;71;1920;-58
2022/12/28 06:43:35;;;;;;;;;;;20.70;70.30;;;;;;1655058;71;691;-58
2022/12/28 06:45:37;;;;;;;;;;;20.70;70.60;;;;;;1644404;71;742;-58
2022/12/28 06:47:39;;;;;;;;;;;20.70;70.30;;;;;;1651236;71;778;-58
2022/12/28 06:49:41;;;;;;;;;;;20.70;70.50;;;;;;1656576;70;1139;-58
2022/12/28 06:51:43;;;;;;;;;;;20.70;70.30;;;;;;1646551;71;745;-58
2022/12/28 06:53:45;;;;;;;;;;;20.60;70.10;;;;;;1658693;71;681;-58
2022/12/28 06:55:56;;;;;;;;;;;20.60;70.00;;;;;;1652305;71;698;-58
2022/12/28 06:57:58;;;;;;;;;;;20.60;70.20;;;;;;1651733;71;745;-59
2022/12/28 07:00:00;;;;;;;;;;;20.60;70.10;;;;;;1651363;71;1073;-58
2022/12/28 07:02:02;;;;;;;;;;;20.60;70.40;;;;;;1641465;71;1946;-58
2022/12/28 07:04:04;;;;;;;;;;;20.60;70.70;;;;;;1643505;70;700;-58
2022/12/28 07:06:06;;;;;;;;;;;20.70;70.70;;;;;;1651537;71;622;-58
2022/12/28 07:08:08;;;;;;;;;;;20.70;70.70;;;;;;1647195;71;710;-59
2022/12/28 07:10:09;;;;;;;;;;;20.70;71.00;;;;;;1648545;71;1106;-58
2022/12/28 07:12:11;;;;;;;;;;;20.80;70.40;;;;;;1646484;71;711;-58
2022/12/28 07:14:13;;;;;;;;;;;20.80;70.80;;;;;;1654798;70;792;-58
2022/12/28 07:16:19;;;;;;;;;;;20.80;71.00;;;;;;1646296;71;706;-58
2022/12/28 07:18:21;;;;;;;;;;;20.80;70.60;;;;;;1662179;70;1171;-58
2022/12/28 07:20:22;;;;;;;;;;;20.90;70.00;;;;;;1655335;71;730;-57
2022/12/28 07:22:24;;;;;;;;;;;20.90;69.50;;;;;;1651465;71;1961;-58
2022/12/28 07:24:26;;;;;;;;;;;20.90;69.10;;;;;;1650201;71;704;-58
2022/12/28 07:26:28;;;;;;;;;;;21.00;68.80;;;;;;1657206;71;662;-58
2022/12/28 07:28:30;;;;;;;;;;;20.90;68.60;;;;;;1657186;71;1122;-58
2022/12/28 07:30:32;;;;;;;;;;;21.00;68.40;;;;;;1653200;71;732;-58
2022/12/28 07:32:37;;;;;;;;;;;20.90;68.30;;;;;;1649172;70;680;-58
2022/12/28 07:34:39;;;;;;;;;;;21.00;68.40;;;;;;1652737;71;698;-58
2022/12/28 07:36:41;;;;;;;;;;;20.90;68.50;;;;;;1655380;71;805;-58
2022/12/28 07:38:43;;;;;;;;;;;21.00;68.50;;;;;;1655476;71;1153;-58
2022/12/28 07:40:45;;;;;;;;;;;20.90;68.40;;;;;;1655453;71;637;-59
2022/12/28 07:42:47;;;;;;;;;;;21.00;68.50;;;;;;1658859;71;1932;-58
2022/12/28 07:44:48;;;;;;;;;;;21.00;68.50;;;;;;1660016;71;703;-58
2022/12/28 07:46:50;;;;;;;;;;;21.00;68.50;;;;;;1662634;70;763;-58
2022/12/28 07:48:52;;;;;;;;;;;21.00;68.50;;;;;;1653440;70;1135;-59
2022/12/28 07:50:54;;;;;;;;;;;21.00;68.60;;;;;;1651098;71;714;-58
2022/12/28 07:52:56;;;;;;;;;;;21.00;68.60;;;;;;1649489;71;720;-58
2022/12/28 07:54:58;;;;;;;;;;;21.00;68.60;;;;;;1651318;71;726;-58
2022/12/28 07:57:00;;;;;;;;;;;20.90;68.70;;;;;;1640750;71;1454;-58
2022/12/28 07:59:03;;;;;;;;;;;20.90;68.60;;;;;;1657752;71;1121;-58
2022/12/28 08:01:08;;;;;;;;;;;20.90;68.70;;;;;;1650696;70;1926;-58
2022/12/28 08:03:10;;;;;;;;;;;21.00;68.60;;;;;;1652446;71;712;-57
2022/12/28 08:05:12;;;;;;;;;;;21.00;68.60;;;;;;1652877;71;749;-59
2022/12/28 08:07:14;;;;;;;;;;;20.90;68.70;;;;;;1646685;71;716;-58
2022/12/28 08:09:15;;;;;;;;;;;21.00;68.70;;;;;;1650792;71;1105;-59
2022/12/28 08:11:18;;;;;;;;;;;21.00;68.60;;;;;;1653488;71;1703;-58
2022/12/28 08:13:20;;;;;;;;;;;20.90;68.60;;;;;;1654212;71;832;-59
2022/12/28 08:15:22;;;;;;;;;;;21.00;68.60;;;;;;1640926;70;587;-59
2022/12/28 08:17:24;;;;;;;;;;;21.00;68.60;;;;;;1655841;71;789;-58
2022/12/28 08:19:26;;;;;;;;;;;20.90;68.60;;;;;;1653888;71;1101;-58
2022/12/28 08:21:28;;;;;;;;;;;20.90;68.70;;;;;;1652499;71;1920;-58
2022/12/28 08:23:31;;;;;;;;;;;21.00;68.60;;;;;;1644686;71;735;-58
2022/12/28 08:25:34;;;;;;;;;;;21.00;68.60;;;;;;1646161;71;1447;-58
2022/12/28 08:27:36;;;;;;;;;;;21.00;68.50;;;;;;1656862;71;698;-59
2022/12/28 08:29:38;;;;;;;;;;;21.00;68.50;;;;;;1656667;70;1171;-59
2022/12/28 08:31:40;;;;;;;;;;;21.00;68.50;;;;;;1647185;71;705;-58
2022/12/28 08:33:42;;;;;;;;;;;20.90;68.60;;;;;;1653735;71;694;-57
2022/12/28 08:35:44;;;;;;;;;;;21.00;68.50;;;;;;1654687;71;715;-58
2022/12/28 08:37:46;;;;;;;;;;;21.00;68.50;;;;;;1656553;71;711;-58
2022/12/28 08:39:48;;;;;;;;;;;21.00;68.40;;;;;;1648962;71;1457;-59
2022/12/28 08:41:50;;;;;;;;;;;20.90;68.50;;;;;;1659986;71;1914;-57
2022/12/28 08:43:52;;;;;;;;;;;20.90;68.50;;;;;;1645924;70;797;-58
2022/12/28 08:46:02;;;;;;;;;;;21.00;68.60;;;;;;1655810;71;669;-57
2022/12/28 08:48:04;;;;;;;;;;;21.00;68.60;;;;;;1655924;71;1897;-58
2022/12/28 08:50:06;;;;;;;;;;;21.00;68.50;;;;;;1656755;71;1111;-58
2022/12/28 08:52:08;;;;;;;;;;;21.00;68.40;;;;;;1655649;70;798;-58
2022/12/28 08:54:10;;;;;;;;;;;20.90;68.40;;;;;;1646173;71;1528;-58
2022/12/28 08:56:13;;;;;;;;;;;21.00;68.50;;;;;;1652523;71;762;-58
2022/12/28 08:58:15;;;;;;;;;;;21.00;68.60;;;;;;1649672;71;717;-58
2022/12/28 09:00:17;;;;;;;;;;;20.90;68.60;;;;;;1655820;70;1130;-58
2022/12/28 09:02:19;;;;;;;;;;;21.00;68.90;;;;;;1653603;71;1934;-57
2022/12/28 09:04:21;;;;;;;;;;;21.00;69.40;;;;;;1648271;71;713;-58
2022/12/28 09:06:24;;;;;;;;;;;21.00;69.50;;;;;;1650185;71;703;-57
2022/12/28 09:08:26;;;;;;;;;;;21.00;69.50;;;;;;1656302;70;1495;-57
2022/12/28 09:10:28;;;;;;;;;;;20.90;69.70;;;;;;1658731;70;710;-58
2022/12/28 09:12:30;;;;;;;;;;;21.00;69.90;;;;;;1656706;71;648;-57
2022/12/28 09:14:32;;;;;;;;;;;21.00;70.10;;;;;;1663740;70;773;-58
2022/12/28 09:16:34;;;;;;;;;;;21.00;70.20;;;;;;1654301;71;801;-57
2022/12/28 09:18:36;;;;;;;;;;;21.00;70.40;;;;;;1656917;70;1167;-58
2022/12/28 09:20:37;;;;;;;;;;;21.00;70.50;;;;;;1655899;71;678;-57
2022/12/28 09:22:39;;;;;;;;;;;21.00;70.60;;;;;;1652519;70;1935;-58
2022/12/28 09:24:41;;;;;;;;;;;21.00;70.80;;;;;;1646416;71;729;-57
2022/12/28 09:26:43;;;;;;;;;;;21.00;70.60;;;;;;1647553;71;656;-57
2022/12/28 09:28:45;;;;;;;;;;;21.00;70.70;;;;;;1657453;70;1174;-57
2022/12/28 09:30:47;;;;;;;;;;;20.90;70.80;;;;;;1657429;71;913;-57
2022/12/28 09:33:57;;;;;;;;;;;20.90;70.80;;;;;;1656812;71;709;-57
2022/12/28 09:34:53;;;;;;;;;;;20.90;70.90;;;;;;1649266;71;1433;-57
2022/12/28 09:36:54;;;;;;;;;;;21.00;70.90;;;;;;1655534;71;1459;-57
2022/12/28 09:38:56;;;;;;;;;;;20.90;70.90;;;;;;1657467;70;1147;-58
2022/12/28 09:40:58;;;;;;;;;;;21.00;71.00;;;;;;1655993;71;745;-57
2022/12/28 09:43:00;;;;;;;;;;;20.90;71.10;;;;;;1655704;70;1938;-57
2022/12/28 09:45:03;;;;;;;;;;;20.90;71.00;;;;;;1646711;71;726;-57
2022/12/28 09:47:22;;;;;;;;;;;21.00;71.00;;;;;;1648843;71;720;-57
2022/12/28 09:49:25;;;;;;;;;;;21.00;71.00;;;;;;1649217;71;1478;-59
2022/12/28 09:51:31;;;;;;;;;;;20.90;70.90;;;;;;1658086;71;681;-58
2022/12/28 09:53:34;;;;;;;;;;;21.00;71.00;;;;;;1651305;71;718;-58
2022/12/28 09:55:37;;;;;;;;;;;20.90;71.00;;;;;;1651131;71;902;-58
2022/12/28 09:57:39;;;;;;;;;;;21.00;71.00;;;;;;1655254;70;1090;-58
2022/12/28 09:59:41;;;;;;;;;;;20.90;70.90;;;;;;1660272;70;1092;-58
2022/12/28 10:01:43;;;;;;;;;;;21.00;70.80;;;;;;1654980;71;1918;-60
2022/12/28 10:03:45;;;;;;;;;;;21.00;70.70;;;;;;1658025;71;1489;-58
2022/12/28 10:05:47;;;;;;;;;;;21.00;70.60;;;;;;1652530;71;709;-58
2022/12/28 10:07:49;;;;;;;;;;;20.90;70.50;;;;;;1640506;71;674;-58
2022/12/28 10:09:51;;;;;;;;;;;21.00;70.40;;;;;;1654248;71;1142;-58
2022/12/28 10:11:53;;;;;;;;;;;21.00;70.40;;;;;;1644258;71;222925;-71
2022/12/28 10:13:59;;;;;;;;;;;21.00;70.40;;;;;;1669072;70;758;-71
2022/12/28 10:16:01;;;;;;;;;;;21.00;70.30;;;;;;1672505;70;772;-72
2022/12/28 10:18:04;;;;;;;;;;;21.00;70.20;;;;;;1669990;70;1514;-71
2022/12/28 10:20:09;;;;;;;;;;;21.00;70.00;;;;;;1667499;70;786;-71
2022/12/28 10:22:12;;;;;;;;;;;21.00;69.90;;;;;;1670688;70;1936;-72
2022/12/28 10:24:14;;;;;;;;;;;21.00;69.80;;;;;;1693333;70;1591;-74
2022/12/28 10:26:16;;;;;;;;;;;21.00;69.70;;;;;;1693390;70;677;-75
2022/12/28 10:28:19;;;;;;;;;;;21.00;69.70;;;;;;1690907;70;710;-74
2022/12/28 10:30:25;;;;;;;;;;;21.00;69.60;;;;;;1695039;70;783;-74
2022/12/28 10:32:27;;;;;;;;;;;21.00;69.50;;;;;;1697761;70;1282;-73
2022/12/28 10:34:30;;;;;;;;;;;21.00;69.50;;;;;;1691162;70;680;-73
2022/12/28 10:36:33;;;;;;;;;;;21.00;69.40;;;;;;1695595;70;782;-73
2022/12/28 10:38:35;;;;;;;;;;;21.00;69.40;;;;;;1692242;70;718;-73
2022/12/28 10:40:38;;;;;;;;;;;20.90;69.30;;;;;;1692624;70;784;-73
2022/12/28 10:42:40;;;;;;;;;;;20.90;69.30;;;;;;1691204;70;1952;-74
2022/12/28 10:44:42;;;;;;;;;;;20.90;69.20;;;;;;1694750;70;657;-74
2022/12/28 10:46:55;;;;;;;;;;;20.90;69.20;;;;;;1692915;70;1499;-74
2022/12/28 10:48:58;;;;;;;;;;;20.90;69.10;;;;;;1687080;70;1004;-73
2022/12/28 10:51:01;;;;;;;;;;;21.00;69.10;;;;;;1698395;70;774;-72
2022/12/28 10:53:02;;;;;;;;;;;20.90;69.10;;;;;;1693208;70;1116;-73
2022/12/28 10:55:06;;;;;;;;;;;20.90;69.00;;;;;;1690932;70;757;-74
2022/12/28 10:57:13;;;;;;;;;;;20.90;69.00;;;;;;1685990;70;1728;-74
2022/12/28 10:59:18;;;;;;;;;;;20.90;69.00;;;;;;1664351;70;1055;-73
2022/12/28 11:01:24;;;;;;;;;;;20.90;68.90;;;;;;1691992;70;1539;-74
2022/12/28 11:03:27;;;;;;;;;;;20.90;68.90;;;;;;1700437;70;1920;-72
2022/12/28 11:05:29;;;;;;;;;;;20.90;68.80;;;;;;1696166;70;773;-74
2022/12/28 11:07:32;;;;;;;;;;;20.90;68.60;;;;;;1691596;70;772;-74
2022/12/28 11:09:34;;;;;;;;;;;20.90;68.60;;;;;;1693546;70;726;-73
2022/12/28 11:11:36;;;;;;;;;;;20.90;68.60;;;;;;1699711;70;1177;-72
2022/12/28 11:13:38;;;;;;;;;;;20.90;68.50;;;;;;1694846;70;1493;-73
2022/12/28 11:15:42;;;;;;;;;;;20.90;68.40;;;;;;1692610;70;785;-74
2022/12/28 11:17:43;;;;;;;;;;;20.90;68.40;;;;;;1690396;70;761;-73
2022/12/28 11:19:46;;;;;;;;;;;20.90;68.30;;;;;;1690690;70;785;-74
2022/12/28 11:21:48;;;;;;;;;;;20.90;68.30;;;;;;1687927;70;1196;-74
2022/12/28 11:23:50;;;;;;;;;;;20.90;68.20;;;;;;1695274;70;1926;-76
2022/12/28 11:25:52;;;;;;;;;;;20.90;68.10;;;;;;1690274;70;677;-74
2022/12/28 11:27:54;;;;;;;;;;;20.90;68.20;;;;;;1691745;70;1530;-77
2022/12/28 11:29:56;;;;;;;;;;;20.90;68.40;;;;;;1695436;70;776;-78
2022/12/28 11:32:00;;;;;;;;;;;21.00;68.00;;;;;;1690190;70;1163;-78
2022/12/28 11:34:04;;;;;;;;;;;20.90;65.90;;;;;;1691697;70;697;-75
2022/12/28 11:36:06;;;;;;;;;;;20.90;64.00;;;;;;1685431;70;707;-79
2022/12/28 11:38:09;;;;;;;;;;;20.90;62.80;;;;;;1686165;70;724;-78
2022/12/28 11:40:13;;;;;;;;;;;20.90;61.60;;;;;;1643606;71;885;-79
2022/12/28 11:42:33;;;;;;;;;;;21.00;60.90;;;;;;1683725;70;1615;-79
2022/12/28 11:44:36;;;;;;;;;;;20.90;60.10;;;;;;1675413;70;929;-75
2022/12/28 11:46:38;;;;;;;;;;;20.90;59.60;;;;;;1678245;70;751;-79
2022/12/28 11:48:45;;;;;;;;;;;20.80;59.20;;;;;;1690068;70;720;-80
2022/12/28 11:50:52;;;;;;;;;;;20.80;58.70;;;;;;1678355;70;704;-76
2022/12/28 11:52:54;;;;;;;;;;;20.80;58.40;;;;;;1672831;70;1776;-77
2022/12/28 11:54:57;;;;;;;;;;;20.80;58.20;;;;;;1683543;70;814;-76
2022/12/28 11:56:59;;;;;;;;;;;20.80;57.20;;;;;;1687774;70;1572;-80
2022/12/28 11:59:02;;;;;;;;;;;20.80;56.90;;;;;;1687492;70;858;-79
2022/12/28 12:01:04;;;;;;;;;;;20.70;56.90;;;;;;1683698;70;693;-79
2022/12/28 12:03:06;;;;;;;;;;;20.70;56.50;;;;;;1691054;70;1945;-78
2022/12/28 12:05:09;;;;;;;;;;;20.70;56.30;;;;;;1675956;70;728;-79
2022/12/28 12:07:19;;;;;;;;;;;20.60;56.20;;;;;;1654795;70;1007;-80
2022/12/28 12:09:22;;;;;;;;;;;20.60;55.90;;;;;;1686456;70;692;-79
2022/12/28 12:11:29;;;;;;;;;;;20.70;55.80;;;;;;1674603;70;1677;-79
2022/12/28 12:13:39;;;;;;;;;;;20.60;55.50;;;;;;1693570;70;833;-77
2022/12/28 12:15:41;;;;;;;;;;;20.60;55.30;;;;;;1682018;70;689;-79
2022/12/28 12:17:44;;;;;;;;;;;20.60;55.30;;;;;;1698700;70;707;-78
2022/12/28 12:19:53;;;;;;;;;;;20.60;55.20;;;;;;1690679;70;752;-79
2022/12/28 12:21:56;;;;;;;;;;;20.50;55.00;;;;;;1688269;70;1132;-79
2022/12/28 12:24:03;;;;;;;;;;;20.50;55.00;;;;;;1694051;70;1914;-78
2022/12/28 12:26:07;;;;;;;;;;;20.40;54.50;;;;;;1662434;70;1729;-79
2022/12/28 12:28:27;;;;;;;;;;;20.40;54.40;;;;;;1631372;70;1018;-79
2022/12/28 12:30:29;;;;;;;;;;;20.40;54.20;;;;;;1698263;70;746;-79
2022/12/28 12:32:32;;;;;;;;;;;20.40;53.90;;;;;;1687140;70;1119;-79
2022/12/28 12:34:36;;;;;;;;;;;20.40;54.00;;;;;;1680874;70;1985;-79
2022/12/28 12:36:39;;;;;;;;;;;20.40;54.10;;;;;;1690529;70;716;-75
2022/12/28 12:38:58;;;;;;;;;;;20.30;53.90;;;;;;1680281;70;1828;-79
2022/12/28 12:41:01;;;;;;;;;;;20.30;53.70;;;;;;1687964;70;1126;-79